createdAt,value
2023-02-24T00:00:32.427Z,10.20
2023-02-24T00:03:06.033Z,10.20
2023-02-24T00:05:36.084Z,10.20
2023-02-24T00:08:04.270Z,10.20
2023-02-24T00:10:34.058Z,10.20
2023-02-24T00:13:02.299Z,10.20
2023-02-24T00:15:30.509Z,10.30
2023-02-24T00:17:59.340Z,10.20
2023-02-24T00:20:27.509Z,10.30
2023-02-24T00:22:55.619Z,10.30
2023-02-24T00:25:23.785Z,10.30
2023-02-24T00:27:55.650Z,10.20
2023-02-24T00:30:24.085Z,10.20
2023-02-24T00:32:52.313Z,10.20
2023-02-24T00:35:20.477Z,10.20
2023-02-24T00:37:51.336Z,10.20
2023-02-24T00:40:23.380Z,10.10
2023-02-24T00:42:54.035Z,10.10
2023-02-24T00:45:22.409Z,10.10
2023-02-24T00:47:50.534Z,10.10
2023-02-24T00:50:18.984Z,10.10
2023-02-24T00:52:47.104Z,10.10
2023-02-24T00:55:15.498Z,10.10
2023-02-24T00:57:45.259Z,10.20
2023-02-24T01:00:16.620Z,10.20
2023-02-24T01:02:46.070Z,10.20
2023-02-24T01:05:15.278Z,10.20
2023-02-24T01:07:43.362Z,10.20
2023-02-24T01:10:12.967Z,10.20
2023-02-24T01:12:49.669Z,10.20
2023-02-24T01:15:22.275Z,10.20
2023-02-24T01:17:50.452Z,10.20
2023-02-24T01:20:19.745Z,10.20
2023-02-24T01:22:50.117Z,10.10
2023-02-24T01:25:20.237Z,10.00
2023-02-24T01:27:48.461Z,9.80
2023-02-24T01:30:18.390Z,9.80
2023-02-24T01:32:48.628Z,9.90
2023-02-24T01:35:17.669Z,9.90
2023-02-24T01:37:46.309Z,10.00
2023-02-24T01:40:21.670Z,10.00
2023-02-24T01:42:51.735Z,9.80
2023-02-24T01:45:25.133Z,9.70
2023-02-24T01:47:58.480Z,9.80
2023-02-24T01:50:27.769Z,9.80
2023-02-24T01:52:58.862Z,9.90
2023-02-24T01:55:32.178Z,10.00
2023-02-24T01:58:05.965Z,10.10
2023-02-24T02:00:38.311Z,10.10
2023-02-24T02:03:24.191Z,10.10
2023-02-24T02:05:56.117Z,10.10
2023-02-24T02:08:25.932Z,10.10
2023-02-24T02:10:58.885Z,10.10
2023-02-24T02:13:28.358Z,10.00
2023-02-24T02:16:13.670Z,10.00
2023-02-24T02:18:56.692Z,10.00
2023-02-24T02:22:13.826Z,10.00
2023-02-24T02:24:49.703Z,10.00
2023-02-24T02:27:47.638Z,10.10
2023-02-24T02:30:48.527Z,10.10
2023-02-24T02:33:56.225Z,10.10
2023-02-24T02:36:33.180Z,10.10
2023-02-24T02:39:12.518Z,10.10
2023-02-24T02:41:50.809Z,10.10
2023-02-24T02:44:25.032Z,10.10
2023-02-24T02:46:59.259Z,10.10
2023-02-24T02:49:33.280Z,10.10
2023-02-24T02:52:13.735Z,10.00
2023-02-24T02:54:49.759Z,9.90
2023-02-24T02:57:21.499Z,9.90
2023-02-24T02:59:57.460Z,10.00
2023-02-24T03:02:30.598Z,10.00
2023-02-24T03:05:04.118Z,10.00
2023-02-24T03:07:40.481Z,10.00
2023-02-24T03:10:17.647Z,10.00
2023-02-24T03:12:49.076Z,9.90
2023-02-24T03:15:21.061Z,9.90
2023-02-24T03:17:57.317Z,9.60
2023-02-24T03:20:32.762Z,9.30
2023-02-24T03:23:04.985Z,9.10
2023-02-24T03:25:44.513Z,9.40
2023-02-24T03:28:19.776Z,9.50
2023-02-24T03:30:55.275Z,9.60
2023-02-24T03:33:29.809Z,9.40
2023-02-24T03:36:01.789Z,9.20
2023-02-24T03:38:38.338Z,9.20
2023-02-24T03:41:11.298Z,9.40
2023-02-24T03:43:44.959Z,9.50
2023-02-24T03:46:15.070Z,9.60
2023-02-24T03:48:48.737Z,9.60
2023-02-24T03:51:21.390Z,9.60
2023-02-24T03:54:05.738Z,9.60
2023-02-24T03:56:47.902Z,9.50
2023-02-24T03:59:28.040Z,9.50
2023-02-24T04:02:02.833Z,9.50
2023-02-24T04:04:43.285Z,9.50
2023-02-24T04:07:36.565Z,9.50
2023-02-24T04:10:12.748Z,9.40
2023-02-24T04:12:51.626Z,9.40
2023-02-24T04:15:25.731Z,9.10
2023-02-24T04:17:58.583Z,9.10
2023-02-24T04:20:33.507Z,9.00
2023-02-24T04:23:08.671Z,8.90
2023-02-24T04:25:41.499Z,8.90
2023-02-24T04:28:11.257Z,9.10
2023-02-24T04:30:46.903Z,9.20
2023-02-24T04:33:15.176Z,9.30
2023-02-24T04:35:46.484Z,9.20
2023-02-24T04:38:14.729Z,9.30
2023-02-24T04:40:44.389Z,9.30
2023-02-24T04:43:13.045Z,9.30
2023-02-24T04:45:41.239Z,9.40
2023-02-24T04:48:12.993Z,9.40
2023-02-24T04:50:43.292Z,9.40
2023-02-24T04:53:14.713Z,9.40
2023-02-24T04:55:48.793Z,9.30
2023-02-24T04:58:20.212Z,9.30
2023-02-24T05:00:49.495Z,9.30
2023-02-24T05:03:18.367Z,9.30
2023-02-24T05:05:52.016Z,9.30
2023-02-24T05:08:21.011Z,9.30
2023-02-24T05:10:51.861Z,9.30
2023-02-24T05:13:24.411Z,9.30
2023-02-24T05:15:52.785Z,9.30
2023-02-24T05:18:23.839Z,9.30
2023-02-24T05:21:10.866Z,9.30
2023-02-24T05:23:44.174Z,9.30
2023-02-24T05:26:16.976Z,9.20
2023-02-24T05:28:49.189Z,9.20
2023-02-24T05:31:19.957Z,9.20
2023-02-24T05:33:50.512Z,9.20
2023-02-24T05:36:20.100Z,9.20
2023-02-24T05:38:50.277Z,9.20
2023-02-24T05:41:20.813Z,9.20
2023-02-24T05:43:54.838Z,9.30
2023-02-24T05:46:28.216Z,9.20
2023-02-24T05:48:57.969Z,9.30
2023-02-24T05:51:26.838Z,9.20
2023-02-24T05:53:55.963Z,9.20
2023-02-24T05:56:27.372Z,9.20
2023-02-24T05:59:02.052Z,9.20
2023-02-24T06:01:31.407Z,9.10
2023-02-24T06:04:05.711Z,9.10
2023-02-24T06:06:38.801Z,9.10
2023-02-24T06:09:10.762Z,9.10
2023-02-24T06:11:41.935Z,9.00
2023-02-24T06:14:11.283Z,9.00
2023-02-24T06:16:41.182Z,9.00
2023-02-24T06:19:11.506Z,9.00
2023-02-24T06:21:41.766Z,9.10
2023-02-24T06:24:14.513Z,9.10
2023-02-24T06:26:44.380Z,9.10
2023-02-24T06:29:14.927Z,9.10
2023-02-24T06:31:44.104Z,9.10
2023-02-24T06:34:13.334Z,9.10
2023-02-24T06:36:43.148Z,9.10
2023-02-24T06:39:14.479Z,9.10
2023-02-24T06:41:44.187Z,9.10
2023-02-24T06:44:13.810Z,9.20
2023-02-24T06:46:42.308Z,9.20
2023-02-24T06:49:11.581Z,9.20
2023-02-24T06:51:39.887Z,9.20
2023-02-24T06:54:08.213Z,9.20
2023-02-24T06:56:39.416Z,9.20
2023-02-24T06:59:12.012Z,9.20
2023-02-24T07:01:45.128Z,9.20
2023-02-24T07:04:20.983Z,9.20
2023-02-24T07:06:52.526Z,9.10
2023-02-24T07:09:23.432Z,9.10
2023-02-24T07:11:53.341Z,9.20
2023-02-24T07:14:25.612Z,9.20
2023-02-24T07:16:55.485Z,9.20
2023-02-24T07:19:25.996Z,9.20
2023-02-24T07:22:00.315Z,9.20
2023-02-24T07:24:36.016Z,9.30
2023-02-24T07:27:06.396Z,9.30
2023-02-24T07:29:37.795Z,9.20
2023-02-24T07:32:08.728Z,9.20
2023-02-24T07:34:40.002Z,9.30
2023-02-24T07:37:09.662Z,9.30
2023-02-24T07:39:39.380Z,9.20
2023-02-24T07:42:09.340Z,9.20
2023-02-24T07:44:49.205Z,9.20
2023-02-24T07:47:17.731Z,9.20
2023-02-24T07:49:46.145Z,9.20
2023-02-24T07:52:14.374Z,9.20
2023-02-24T07:54:43.162Z,9.30
2023-02-24T07:57:14.227Z,9.30
2023-02-24T07:59:47.802Z,9.20
2023-02-24T08:02:18.543Z,9.30
2023-02-24T08:04:50.530Z,9.20
2023-02-24T08:07:24.826Z,9.30
2023-02-24T08:10:14.418Z,9.30
2023-02-24T08:12:43.801Z,9.20
2023-02-24T08:15:24.220Z,9.20
2023-02-24T08:17:59.551Z,9.10
2023-02-24T08:20:30.195Z,9.20
2023-02-24T08:22:58.510Z,9.20
2023-02-24T08:25:35.945Z,9.20
2023-02-24T08:28:09.504Z,9.30
2023-02-24T08:30:40.766Z,9.00
2023-02-24T08:33:15.851Z,8.80
2023-02-24T08:35:45.696Z,8.80
2023-02-24T08:38:16.636Z,8.80
2023-02-24T08:40:54.764Z,8.90
2023-02-24T08:43:33.225Z,8.90
2023-02-24T08:46:06.510Z,8.80
2023-02-24T08:48:38.888Z,8.80
2023-02-24T08:51:12.127Z,8.90
2023-02-24T08:53:41.493Z,9.00
2023-02-24T08:56:11.786Z,9.00
2023-02-24T08:58:47.672Z,9.00
2023-02-24T09:01:24.619Z,9.10
2023-02-24T09:03:57.178Z,9.00
2023-02-24T09:06:38.480Z,9.20
2023-02-24T09:09:21.134Z,9.20
2023-02-24T09:11:56.199Z,9.30
2023-02-24T09:14:28.815Z,9.30
2023-02-24T09:17:07.034Z,9.30
2023-02-24T09:20:11.417Z,9.30
2023-02-24T09:22:57.947Z,9.30
2023-02-24T09:25:40.869Z,9.30
2023-02-24T09:28:11.100Z,9.30
2023-02-24T09:30:51.557Z,9.30
2023-02-24T09:33:22.373Z,9.30
2023-02-24T09:36:02.862Z,9.30
2023-02-24T09:38:49.003Z,9.30
2023-02-24T09:41:31.969Z,9.40
2023-02-24T09:44:03.822Z,9.30
2023-02-24T09:46:42.626Z,9.30
2023-02-24T09:49:18.239Z,9.40
2023-02-24T09:51:57.906Z,9.30
2023-02-24T09:54:29.000Z,9.10
2023-02-24T09:57:08.566Z,9.20
2023-02-24T10:00:01.620Z,9.20
2023-02-24T10:02:45.470Z,9.30
2023-02-24T10:05:27.365Z,9.20
2023-02-24T10:08:00.542Z,9.10
2023-02-24T10:10:35.824Z,9.10
2023-02-24T10:13:14.868Z,9.30
2023-02-24T10:15:59.675Z,9.40
2023-02-24T10:18:31.730Z,9.40
2023-02-24T10:21:07.560Z,9.40
2023-02-24T10:23:56.568Z,9.40
2023-02-24T10:26:51.310Z,9.50
2023-02-24T10:29:40.436Z,9.50
2023-02-24T10:32:24.611Z,9.50
2023-02-24T10:34:53.560Z,9.50
2023-02-24T10:37:28.574Z,9.50
2023-02-24T10:40:00.756Z,9.60
2023-02-24T10:42:31.931Z,9.60
2023-02-24T10:45:18.098Z,9.60
2023-02-24T10:47:57.039Z,9.60
2023-02-24T10:50:31.936Z,9.60
2023-02-24T10:53:26.591Z,9.60
2023-02-24T10:56:15.325Z,9.60
2023-02-24T10:58:56.646Z,9.40
2023-02-24T11:01:40.986Z,9.20
2023-02-24T11:04:22.997Z,9.20
2023-02-24T11:06:55.830Z,9.10
2023-02-24T11:09:43.995Z,9.10
2023-02-24T11:12:38.571Z,9.10
2023-02-24T11:15:33.711Z,9.30
2023-02-24T11:18:02.179Z,9.20
2023-02-24T11:20:48.071Z,9.40
2023-02-24T11:23:21.225Z,9.50
2023-02-24T11:25:51.102Z,9.60
2023-02-24T11:28:35.087Z,9.60
2023-02-24T11:31:13.387Z,9.60
2023-02-24T11:33:47.448Z,9.60
2023-02-24T11:36:27.714Z,9.70
2023-02-24T11:39:18.770Z,9.70
2023-02-24T11:41:53.145Z,9.70
2023-02-24T11:44:29.110Z,9.70
2023-02-24T11:47:01.142Z,9.70
2023-02-24T11:49:33.181Z,9.70
2023-02-24T11:52:05.190Z,9.80
2023-02-24T11:54:39.919Z,9.80
2023-02-24T11:57:15.374Z,9.50
2023-02-24T11:59:48.115Z,9.30
2023-02-24T12:02:23.950Z,9.30
2023-02-24T12:04:59.693Z,9.30
2023-02-24T12:07:33.865Z,9.40
2023-02-24T12:10:16.625Z,9.30
2023-02-24T12:12:52.643Z,9.50
2023-02-24T12:15:26.564Z,9.50
2023-02-24T12:18:04.417Z,9.50
2023-02-24T12:20:38.375Z,9.50
2023-02-24T12:23:18.050Z,9.40
2023-02-24T12:26:09.136Z,9.50
2023-02-24T12:28:59.917Z,9.40
2023-02-24T12:31:39.020Z,9.40
2023-02-24T12:34:14.482Z,9.40
2023-02-24T12:37:00.355Z,9.60
2023-02-24T12:39:32.710Z,9.80
2023-02-24T12:42:12.357Z,9.80
2023-02-24T12:44:49.736Z,9.90
2023-02-24T12:47:26.831Z,9.90
2023-02-24T12:50:18.021Z,9.70
2023-02-24T12:52:57.633Z,9.80
2023-02-24T12:55:31.904Z,9.90
2023-02-24T12:58:08.253Z,9.70
2023-02-24T13:00:47.753Z,9.80
2023-02-24T13:03:32.871Z,9.80
2023-02-24T13:06:08.202Z,9.80
2023-02-24T13:08:48.194Z,9.80
2023-02-24T13:11:24.518Z,9.80
2023-02-24T13:14:01.478Z,9.90
2023-02-24T13:16:30.934Z,9.80
2023-02-24T13:19:18.941Z,9.80
2023-02-24T13:21:56.981Z,9.80
2023-02-24T13:24:27.581Z,9.80
2023-02-24T13:27:20.666Z,9.80
2023-02-24T13:29:50.874Z,9.80
2023-02-24T13:32:32.632Z,9.80
2023-02-24T13:35:05.418Z,9.90
2023-02-24T13:37:36.723Z,9.90
2023-02-24T13:40:23.355Z,10.00
2023-02-24T13:43:00.898Z,9.90
2023-02-24T13:45:30.956Z,9.80
2023-02-24T13:48:23.087Z,9.80
2023-02-24T13:51:08.281Z,9.80
2023-02-24T13:53:51.620Z,9.80
2023-02-24T13:56:30.065Z,9.80
2023-02-24T13:59:27.051Z,9.80
2023-02-24T14:02:00.703Z,9.80
2023-02-24T14:04:31.372Z,9.80
2023-02-24T14:07:03.833Z,9.90
2023-02-24T14:09:34.354Z,9.90
2023-02-24T14:12:05.554Z,9.80
2023-02-24T14:20:33.944Z,9.80
2023-02-24T14:23:04.063Z,9.80
2023-02-24T14:25:37.170Z,9.80
2023-02-24T14:28:05.794Z,9.80
2023-02-24T14:30:36.621Z,9.80
2023-02-24T14:33:07.324Z,9.80
2023-02-24T14:35:37.706Z,9.80
2023-02-24T14:38:07.399Z,9.80
2023-02-24T14:40:35.671Z,9.80
2023-02-24T14:43:04.219Z,9.80
2023-02-24T14:45:32.373Z,9.90
2023-02-24T14:48:00.478Z,10.00
2023-02-24T14:50:31.693Z,9.90
2023-02-24T14:53:06.062Z,9.90
2023-02-24T14:55:38.632Z,9.80
2023-02-24T14:58:14.963Z,9.80
2023-02-24T15:00:48.405Z,9.80
2023-02-24T15:03:21.273Z,9.90
2023-02-24T15:05:52.743Z,9.90
2023-02-24T15:08:32.739Z,9.90
2023-02-24T15:11:05.625Z,9.90
2023-02-24T15:13:39.341Z,9.90
2023-02-24T15:16:13.895Z,10.00
2023-02-24T15:18:43.741Z,10.00
2023-02-24T15:21:22.134Z,10.10
2023-02-24T15:23:50.529Z,10.20
2023-02-24T15:26:32.278Z,10.20
2023-02-24T15:29:02.411Z,10.30
2023-02-24T15:31:30.974Z,10.20
2023-02-24T15:34:01.086Z,10.20
2023-02-24T15:36:32.964Z,10.20
2023-02-24T15:39:04.421Z,10.20
2023-02-24T15:41:45.037Z,10.20
2023-02-24T15:44:27.763Z,10.20
2023-02-24T15:46:56.499Z,10.20
2023-02-24T15:49:24.944Z,10.20
2023-02-24T15:51:55.584Z,10.20
2023-02-24T15:54:31.605Z,10.20
2023-02-24T15:57:03.377Z,10.20
2023-02-24T15:59:31.910Z,10.20
2023-02-24T16:02:00.101Z,10.20
2023-02-24T16:04:28.290Z,10.20
2023-02-24T16:06:58.472Z,10.20
2023-02-24T16:09:33.834Z,10.20
2023-02-24T16:12:04.567Z,10.30
2023-02-24T16:14:33.794Z,10.20
2023-02-24T16:17:08.851Z,10.20
2023-02-24T16:19:38.071Z,10.20
2023-02-24T16:22:06.215Z,10.20
2023-02-24T16:24:34.456Z,10.30
2023-02-24T16:27:04.001Z,10.30
2023-02-24T16:29:32.186Z,10.30
2023-02-24T16:32:00.694Z,10.40
2023-02-24T16:34:29.083Z,10.40
2023-02-24T16:36:57.232Z,10.30
2023-02-24T16:39:25.293Z,10.40
2023-02-24T16:41:53.659Z,10.40
2023-02-24T16:44:23.428Z,10.50
2023-02-24T16:46:52.896Z,10.40
2023-02-24T16:49:22.264Z,10.50
2023-02-24T16:51:50.357Z,10.40
2023-02-24T16:54:21.897Z,10.30
2023-02-24T16:56:50.878Z,10.30
2023-02-24T16:59:18.980Z,10.20
2023-02-24T17:01:48.679Z,10.20
2023-02-24T17:04:16.874Z,10.20
2023-02-24T17:06:45.023Z,10.20
2023-02-24T17:09:15.554Z,10.20
2023-02-24T17:11:44.007Z,9.70
2023-02-24T17:14:17.234Z,9.70
2023-02-24T17:16:45.787Z,9.60
2023-02-24T17:19:15.362Z,9.50
2023-02-24T17:21:45.135Z,9.40
2023-02-24T17:24:16.718Z,9.60
2023-02-24T17:26:45.116Z,9.60
2023-02-24T17:29:14.772Z,9.60
2023-02-24T17:31:43.632Z,9.70
2023-02-24T17:34:12.154Z,9.70
2023-02-24T17:36:41.801Z,9.70
2023-02-24T17:39:10.261Z,9.70
2023-02-24T17:41:38.675Z,9.70
2023-02-24T17:44:06.840Z,9.50
2023-02-24T17:46:35.153Z,9.50
2023-02-24T17:49:05.022Z,9.40
2023-02-24T17:51:33.273Z,9.30
2023-02-24T17:54:06.224Z,9.30
2023-02-24T17:56:34.701Z,9.30
2023-02-24T17:59:03.146Z,9.50
2023-02-24T18:01:31.465Z,9.60
2023-02-24T18:03:59.761Z,9.60
2023-02-24T18:06:28.317Z,9.30
2023-02-24T18:08:56.576Z,9.10
2023-02-24T18:11:26.196Z,9.00
2023-02-24T18:13:56.741Z,9.20
2023-02-24T18:16:26.058Z,9.40
2023-02-24T18:18:54.532Z,9.50
2023-02-24T18:21:22.826Z,9.60
2023-02-24T18:23:51.271Z,9.50
2023-02-24T18:26:21.469Z,9.30
2023-02-24T18:28:53.931Z,8.90
2023-02-24T18:31:23.753Z,8.80
2023-02-24T18:33:52.502Z,9.10
2023-02-24T18:36:21.520Z,9.40
2023-02-24T18:38:50.117Z,9.50
2023-02-24T18:41:21.429Z,9.70
2023-02-24T18:43:52.445Z,9.70
2023-02-24T18:46:21.463Z,9.80
2023-02-24T18:48:51.126Z,9.80
2023-02-24T18:51:22.411Z,9.50
2023-02-24T18:53:52.772Z,9.50
2023-02-24T18:56:23.501Z,9.70
2023-02-24T18:58:56.491Z,9.80
2023-02-24T19:01:27.993Z,9.80
2023-02-24T19:03:56.532Z,9.80
2023-02-24T19:06:27.254Z,9.80
2023-02-24T19:08:59.053Z,9.80
2023-02-24T19:11:27.954Z,9.70
2023-02-24T19:13:57.549Z,9.80
2023-02-24T19:16:26.375Z,9.80
2023-02-24T19:18:56.609Z,9.80
2023-02-24T19:21:25.398Z,9.70
2023-02-24T19:23:53.980Z,9.60
2023-02-24T19:26:24.863Z,9.70
2023-02-24T19:28:53.346Z,9.80
2023-02-24T19:31:25.754Z,9.80
2023-02-24T19:33:54.393Z,9.80
2023-02-24T19:36:23.770Z,9.80
2023-02-24T19:38:52.391Z,9.80
2023-02-24T19:41:20.698Z,9.50
2023-02-24T19:43:49.208Z,9.10
2023-02-24T19:46:18.188Z,9.10
2023-02-24T19:48:48.528Z,9.40
2023-02-24T19:51:18.681Z,9.50
2023-02-24T19:53:47.178Z,9.50
2023-02-24T19:56:15.928Z,9.60
2023-02-24T19:58:44.215Z,9.70
2023-02-24T20:01:14.341Z,9.70
2023-02-24T20:03:44.184Z,9.70
2023-02-24T20:06:20.470Z,9.60
2023-02-24T20:08:49.209Z,9.70
2023-02-24T20:11:18.616Z,9.70
2023-02-24T20:13:47.725Z,9.70
2023-02-24T20:16:17.876Z,9.70
2023-02-24T20:18:46.800Z,9.70
2023-02-24T20:21:15.485Z,9.60
2023-02-24T20:23:45.022Z,9.70
2023-02-24T20:26:16.282Z,9.70
2023-02-24T20:28:44.670Z,9.60
2023-02-24T20:31:15.643Z,9.60
2023-02-24T20:33:45.142Z,9.60
2023-02-24T20:36:15.861Z,9.20
2023-02-24T20:38:45.520Z,8.90
2023-02-24T20:41:13.755Z,8.70
2023-02-24T20:43:42.001Z,8.90
2023-02-24T20:46:14.869Z,9.10
2023-02-24T20:48:43.314Z,9.20
2023-02-24T20:51:13.325Z,9.30
2023-02-24T20:53:56.011Z,9.20
2023-02-24T20:56:27.640Z,9.20
2023-02-24T20:58:59.939Z,9.30
2023-02-24T21:01:29.356Z,9.10
2023-02-24T21:03:58.005Z,9.20
2023-02-24T21:06:26.533Z,9.30
2023-02-24T21:08:55.381Z,9.30
2023-02-24T21:11:24.328Z,9.40
2023-02-24T21:13:54.599Z,9.40
2023-02-24T21:16:23.468Z,9.40
2023-02-24T21:18:53.287Z,9.40
2023-02-24T21:21:22.040Z,9.20
2023-02-24T21:23:51.206Z,9.10
2023-02-24T21:26:20.498Z,9.00
2023-02-24T21:28:49.546Z,9.00
2023-02-24T21:31:21.867Z,8.70
2023-02-24T21:33:53.946Z,8.70
2023-02-24T21:36:26.514Z,8.50
2023-02-24T21:38:55.420Z,8.50
2023-02-24T21:41:24.800Z,8.50
2023-02-24T21:43:55.574Z,8.50
2023-02-24T21:46:28.860Z,8.40
2023-02-24T21:48:58.246Z,8.40
2023-02-24T21:51:27.932Z,8.40
2023-02-24T21:53:57.098Z,8.40
2023-02-24T21:56:27.710Z,8.30
2023-02-24T21:58:59.093Z,8.20
2023-02-24T22:01:30.726Z,8.30
2023-02-24T22:04:01.402Z,8.40
2023-02-24T22:06:32.096Z,8.40
2023-02-24T22:09:00.968Z,8.50
2023-02-24T22:11:31.826Z,8.60
2023-02-24T22:14:00.264Z,8.50
2023-02-24T22:16:30.171Z,8.60
2023-02-24T22:18:58.622Z,8.50
2023-02-24T22:21:29.174Z,8.30
2023-02-24T22:23:59.382Z,8.10
2023-02-24T22:26:29.957Z,8.00
2023-02-24T22:28:59.056Z,7.90
2023-02-24T22:31:30.768Z,7.90
2023-02-24T22:33:59.915Z,7.80
2023-02-24T22:36:30.147Z,7.70
2023-02-24T22:38:59.630Z,7.80
2023-02-24T22:41:29.588Z,7.70
2023-02-24T22:43:57.776Z,7.70
2023-02-24T22:46:28.064Z,7.80
2023-02-24T22:48:58.458Z,7.70
2023-02-24T22:51:27.994Z,7.70
2023-02-24T22:53:56.778Z,7.50
2023-02-24T22:56:27.841Z,7.50
2023-02-24T22:58:56.630Z,7.50
2023-02-24T23:01:27.514Z,7.50
2023-02-24T23:03:57.217Z,7.50
2023-02-24T23:06:29.583Z,7.40
2023-02-24T23:08:59.202Z,7.40
2023-02-24T23:11:29.782Z,7.40
2023-02-24T23:13:59.620Z,7.30
2023-02-24T23:16:31.560Z,7.20
2023-02-24T23:19:05.673Z,7.20
2023-02-24T23:21:35.896Z,7.20
2023-02-24T23:24:04.834Z,7.20
2023-02-24T23:26:33.820Z,7.20
2023-02-24T23:29:02.216Z,7.20
2023-02-24T23:31:30.629Z,7.10
2023-02-24T23:34:01.619Z,7.10
2023-02-24T23:36:29.925Z,7.10
2023-02-24T23:38:58.102Z,7.10
2023-02-24T23:41:26.285Z,7.10
2023-02-24T23:43:54.913Z,7.00
2023-02-24T23:46:23.605Z,7.00
2023-02-24T23:48:52.871Z,7.00
2023-02-24T23:51:22.561Z,6.90
2023-02-24T23:53:50.952Z,6.90
2023-02-24T23:56:21.839Z,6.90
2023-02-24T23:58:51.971Z,6.90
